Time;durP1;ratioP1;P1;durP2;ratioP2;P2;SDS_P1;SDS_P2;PMS_P1;PMS_P2;Temp;Humidity;BMP_temperature;BMP_pressure;BME280_temperature;BME280_humidity;BME280_pressure;Samples;Min_cycle;Max_cycle;Signal;HPM_P1;HPM_P2
2022/10/24 00:00:43;;;;;;;1.63;0.75;;;21.20;43.00;;;;;;5090737;28;20251;-44
2022/10/24 00:03:14;;;;;;;1.15;0.70;;;21.20;43.00;;;;;;5090656;28;20198;-43
2022/10/24 00:05:46;;;;;;;1.40;0.80;;;21.20;42.90;;;;;;5091064;28;20191;-42
2022/10/24 00:08:18;;;;;;;1.30;1.00;;;21.20;43.00;;;;;;5091260;28;20611;-39
2022/10/24 00:10:50;;;;;;;0.80;0.80;;;21.20;43.00;;;;;;5091149;28;20198;-40
2022/10/24 00:13:22;;;;;;;1.10;0.70;;;21.20;43.00;;;;;;5090706;28;20183;-42
2022/10/24 00:15:53;;;;;;;1.08;0.88;;;21.30;43.00;;;;;;5090211;28;20202;-41
2022/10/24 00:18:24;;;;;;;2.00;0.90;;;21.30;43.10;;;;;;5090743;28;20639;-44
2022/10/24 00:20:54;;;;;;;1.52;0.77;;;21.30;43.00;;;;;;5090931;28;20713;-38
2022/10/24 00:23:25;;;;;;;2.40;0.90;;;21.40;43.10;;;;;;5090571;28;20194;-40
2022/10/24 00:25:56;;;;;;;1.42;0.88;;;21.40;43.10;;;;;;5090853;28;20264;-40
2022/10/24 00:28:29;;;;;;;1.20;0.90;;;21.40;43.10;;;;;;5090884;28;20202;-37
2022/10/24 00:30:59;;;;;;;1.92;0.95;;;21.40;43.00;;;;;;5090668;28;20285;-45
2022/10/24 00:33:30;;;;;;;2.17;0.80;;;21.40;43.00;;;;;;5090752;28;20287;-42
2022/10/24 00:36:01;;;;;;;1.38;1.00;;;21.40;43.00;;;;;;5090909;28;20194;-40
2022/10/24 00:38:31;;;;;;;2.00;0.80;;;21.40;43.00;;;;;;5090530;28;20623;-40
2022/10/24 00:41:02;;;;;;;1.02;0.80;;;21.40;43.10;;;;;;5088606;28;20649;-38
2022/10/24 00:43:35;;;;;;;1.27;1.00;;;21.40;43.10;;;;;;5090544;28;20194;-39
2022/10/24 00:46:05;;;;;;;1.90;0.90;;;21.40;43.10;;;;;;5089860;28;20213;-41
2022/10/24 00:48:39;;;;;;;1.50;1.02;;;21.40;43.10;;;;;;5090521;28;20209;-40
2022/10/24 00:51:14;;;;;;;1.40;0.93;;;21.40;43.20;;;;;;5090273;28;20248;-39
2022/10/24 00:53:47;;;;;;;2.85;1.10;;;21.50;43.20;;;;;;5090601;28;20746;-38
2022/10/24 00:56:20;;;;;;;1.98;0.95;;;21.50;43.20;;;;;;5090770;28;20263;-41
2022/10/24 00:58:55;;;;;;;2.38;1.00;;;21.50;43.30;;;;;;5089527;28;20225;-45
2022/10/24 01:01:27;;;;;;;2.30;1.00;;;21.50;43.30;;;;;;5070107;28;20194;-43
2022/10/24 01:03:58;;;;;;;1.50;0.80;;;21.50;43.30;;;;;;5070028;28;20222;-40
2022/10/24 01:06:39;;;;;;;1.27;0.90;;;21.50;43.30;;;;;;5070108;28;20214;-38
2022/10/24 01:09:18;;;;;;;1.50;1.02;;;21.50;43.30;;;;;;5070020;28;20199;-41
2022/10/24 01:12:02;;;;;;;2.00;1.10;;;21.50;43.30;;;;;;5076940;28;20735;-38
2022/10/24 01:14:46;;;;;;;1.42;1.08;;;21.50;43.30;;;;;;5089209;28;20220;-41
2022/10/24 01:17:22;;;;;;;1.50;1.05;;;21.50;43.40;;;;;;5089893;28;20279;-43
2022/10/24 01:20:24;;;;;;;1.15;0.77;;;21.50;43.30;;;;;;5090141;28;20259;-42
2022/10/24 01:23:08;;;;;;;2.05;0.90;;;21.50;43.50;;;;;;5089645;28;20219;-43
2022/10/24 01:25:48;;;;;;;1.73;1.25;;;21.50;43.40;;;;;;5089829;28;20254;-40
2022/10/24 01:28:23;;;;;;;1.67;0.98;;;21.50;43.40;;;;;;5089888;28;20263;-38
2022/10/24 01:31:02;;;;;;;1.75;1.10;;;21.50;43.50;;;;;;5089442;28;20235;-41
2022/10/24 01:33:36;;;;;;;2.53;1.02;;;21.50;43.40;;;;;;5090541;28;20194;-40
2022/10/24 01:36:12;;;;;;;3.45;0.95;;;21.50;43.50;;;;;;5094102;28;20205;-39
2022/10/24 01:38:45;;;;;;;2.00;1.00;;;21.50;43.50;;;;;;5094098;28;20213;-38
2022/10/24 01:41:19;;;;;;;1.67;0.90;;;21.50;43.50;;;;;;5093896;28;20699;-40
2022/10/24 01:43:55;;;;;;;2.28;1.20;;;21.50;43.50;;;;;;5094231;28;20797;-42
2022/10/24 01:46:30;;;;;;;2.10;1.10;;;21.50;43.50;;;;;;5093454;28;20263;-46
2022/10/24 01:49:04;;;;;;;1.38;0.90;;;21.50;43.60;;;;;;5094142;28;20198;-39
2022/10/24 01:51:37;;;;;;;1.98;0.90;;;21.50;43.60;;;;;;5093678;28;20190;-42
2022/10/24 01:54:08;;;;;;;2.00;1.00;;;21.50;43.50;;;;;;5093563;28;20197;-41
2022/10/24 01:56:39;;;;;;;1.15;0.82;;;21.50;43.60;;;;;;5093393;28;20214;-39
2022/10/24 01:59:11;;;;;;;0.80;0.77;;;21.50;43.60;;;;;;5093258;28;20226;-37
2022/10/24 02:01:43;;;;;;;1.20;0.95;;;21.50;43.50;;;;;;5073256;28;20650;-38
2022/10/24 02:04:15;;;;;;;2.30;0.90;;;21.50;43.60;;;;;;5083024;28;20193;-40
2022/10/24 02:06:47;;;;;;;2.95;1.20;;;21.50;43.60;;;;;;5093473;28;20267;-44
2022/10/24 02:09:20;;;;;;;0.95;0.90;;;21.50;43.60;;;;;;5093481;28;20194;-38
2022/10/24 02:11:52;;;;;;;1.48;1.10;;;21.50;43.60;;;;;;5093223;28;20198;-38
2022/10/24 02:14:27;;;;;;;1.30;0.90;;;21.50;43.60;;;;;;5092514;28;20723;-38
2022/10/24 02:17:00;;;;;;;2.03;0.95;;;21.50;43.60;;;;;;5093269;28;20225;-45
2022/10/24 02:19:32;;;;;;;2.80;1.15;;;21.50;43.60;;;;;;5093331;28;20592;-38
2022/10/24 02:22:10;;;;;;;2.45;1.02;;;21.50;43.60;;;;;;5093543;28;20739;-38
2022/10/24 02:24:47;;;;;;;2.55;1.23;;;21.50;43.60;;;;;;5093268;28;20194;-41
2022/10/24 02:27:20;;;;;;;2.35;1.00;;;21.50;43.50;;;;;;5093277;28;20217;-41
2022/10/24 02:29:55;;;;;;;1.83;0.98;;;21.50;43.50;;;;;;5092681;28;20199;-41
2022/10/24 02:32:31;;;;;;;1.33;0.85;;;21.50;43.50;;;;;;5092938;28;20189;-38
2022/10/24 02:35:03;;;;;;;2.20;1.02;;;21.50;43.50;;;;;;5093071;28;20677;-40
2022/10/24 02:37:36;;;;;;;2.25;0.80;;;21.50;43.50;;;;;;5092730;28;20213;-42
2022/10/24 02:40:09;;;;;;;1.50;0.80;;;21.50;43.50;;;;;;5092785;28;20259;-41
2022/10/24 02:42:42;;;;;;;1.63;0.90;;;21.50;43.50;;;;;;5093081;28;20198;-40
2022/10/24 02:45:14;;;;;;;1.77;1.10;;;21.50;43.50;;;;;;5091628;28;20587;-39
2022/10/24 02:47:49;;;;;;;1.70;0.95;;;21.50;43.50;;;;;;5092482;28;20267;-41
2022/10/24 02:50:19;;;;;;;1.52;1.10;;;21.50;43.50;;;;;;5093177;28;20201;-38
2022/10/24 02:52:50;;;;;;;2.15;0.90;;;21.50;43.40;;;;;;5092950;28;20202;-43
2022/10/24 02:55:21;;;;;;;2.05;0.90;;;21.50;43.50;;;;;;5092742;28;20684;-45
2022/10/24 02:57:51;;;;;;;2.25;1.02;;;21.50;43.50;;;;;;5091671;28;20283;-38
2022/10/24 03:00:22;;;;;;;1.50;1.00;;;21.50;43.40;;;;;;5091570;28;20194;-38
2022/10/24 03:02:54;;;;;;;1.60;1.08;;;21.50;43.40;;;;;;5088508;28;20190;-44
2022/10/24 03:05:25;;;;;;;1.23;0.98;;;21.50;43.40;;;;;;5077758;28;20678;-39
2022/10/24 03:07:58;;;;;;;3.20;1.10;;;21.50;43.40;;;;;;5071918;28;20253;-38
2022/10/24 03:10:29;;;;;;;2.78;1.00;;;21.50;43.40;;;;;;5071952;28;20195;-39
2022/10/24 03:12:59;;;;;;;1.00;0.82;;;21.50;43.40;;;;;;5071798;28;20245;-41
2022/10/24 03:15:30;;;;;;;2.03;1.10;;;21.50;43.40;;;;;;5078577;28;20213;-39
2022/10/24 03:18:02;;;;;;;1.45;0.90;;;21.50;43.50;;;;;;5091666;28;20226;-41
2022/10/24 03:20:33;;;;;;;1.33;0.80;;;21.50;43.40;;;;;;5091943;28;20190;-42
2022/10/24 03:23:04;;;;;;;1.27;0.73;;;21.50;43.40;;;;;;5092359;28;20692;-41
2022/10/24 03:25:35;;;;;;;1.63;0.75;;;21.50;43.30;;;;;;5092164;28;20277;-39
2022/10/24 03:28:05;;;;;;;1.42;0.90;;;21.50;43.30;;;;;;5091801;28;20222;-42
2022/10/24 03:30:36;;;;;;;1.75;0.77;;;21.50;43.30;;;;;;5084792;28;20203;-43
2022/10/24 03:33:09;;;;;;;1.65;0.90;;;21.50;43.30;;;;;;5071343;28;20202;-42
2022/10/24 03:35:39;;;;;;;1.90;0.98;;;21.50;43.30;;;;;;5071434;28;20194;-40
2022/10/24 03:38:10;;;;;;;1.65;1.05;;;21.50;43.30;;;;;;5071654;28;20223;-41
2022/10/24 03:40:41;;;;;;;1.80;0.95;;;21.50;43.30;;;;;;5071745;28;20195;-38
2022/10/24 03:43:11;;;;;;;2.58;1.10;;;21.50;43.40;;;;;;5071802;28;20195;-40
2022/10/24 03:45:42;;;;;;;1.88;0.80;;;21.50;43.30;;;;;;5078328;28;20198;-39
2022/10/24 03:48:16;;;;;;;2.95;1.38;;;21.50;43.40;;;;;;5091909;28;20232;-38
2022/10/24 03:50:47;;;;;;;2.15;1.25;;;21.50;43.40;;;;;;5091666;28;20284;-41
2022/10/24 03:53:17;;;;;;;1.80;1.00;;;21.50;43.40;;;;;;5091522;28;20255;-41
2022/10/24 03:55:48;;;;;;;1.50;0.90;;;21.50;43.40;;;;;;5090614;28;20622;-45
2022/10/24 03:58:19;;;;;;;1.15;0.80;;;21.50;43.50;;;;;;5090700;28;20218;-44
2022/10/24 04:00:49;;;;;;;2.35;1.10;;;21.40;43.50;;;;;;5090338;28;20909;-42
2022/10/24 04:03:22;;;;;;;2.17;0.82;;;21.40;43.50;;;;;;5091388;28;20193;-38
2022/10/24 04:05:52;;;;;;;2.00;1.00;;;21.40;43.60;;;;;;5091233;28;20258;-38
2022/10/24 04:08:23;;;;;;;1.48;1.10;;;21.40;43.50;;;;;;5091452;28;20190;-39
2022/10/24 04:10:53;;;;;;;1.60;0.93;;;21.40;43.60;;;;;;5091388;28;20243;-40
2022/10/24 04:13:24;;;;;;;1.92;1.02;;;21.40;43.60;;;;;;5091241;28;20194;-44
2022/10/24 04:15:55;;;;;;;1.08;0.75;;;21.40;43.50;;;;;;5090719;28;20242;-41
2022/10/24 04:18:27;;;;;;;1.95;1.05;;;21.40;43.60;;;;;;5090805;28;20226;-38
2022/10/24 04:20:58;;;;;;;1.65;1.10;;;21.40;43.60;;;;;;5091007;28;20773;-38
2022/10/24 04:23:33;;;;;;;1.60;0.98;;;21.30;43.50;;;;;;5091558;28;20198;-38
2022/10/24 04:26:03;;;;;;;1.83;0.90;;;21.30;43.50;;;;;;5091030;28;20224;-38
2022/10/24 04:28:34;;;;;;;2.42;1.08;;;21.30;43.50;;;;;;5091258;28;20204;-41
2022/10/24 04:31:05;;;;;;;1.08;0.90;;;21.30;43.50;;;;;;5090438;28;20190;-40
2022/10/24 04:33:38;;;;;;;1.90;1.08;;;21.30;43.50;;;;;;5090782;28;20194;-39
2022/10/24 04:36:09;;;;;;;1.20;0.93;;;21.30;43.60;;;;;;5090911;28;20293;-38
2022/10/24 04:38:39;;;;;;;1.73;1.02;;;21.20;43.60;;;;;;5091304;28;20310;-40
2022/10/24 04:41:10;;;;;;;2.35;1.33;;;21.20;43.60;;;;;;5090322;28;20248;-46
2022/10/24 04:43:41;;;;;;;1.35;0.85;;;21.20;43.60;;;;;;5090496;28;20200;-42
2022/10/24 04:46:11;;;;;;;1.73;1.10;;;21.20;43.70;;;;;;5089986;28;20243;-39
2022/10/24 04:48:44;;;;;;;1.40;0.85;;;21.20;43.70;;;;;;5091064;28;20227;-38
2022/10/24 04:51:15;;;;;;;2.45;0.90;;;21.20;43.70;;;;;;5090540;28;20239;-38
2022/10/24 04:53:45;;;;;;;1.55;1.02;;;21.10;43.70;;;;;;5090434;28;20190;-46
2022/10/24 04:56:16;;;;;;;3.25;1.25;;;21.10;43.70;;;;;;5089783;28;20251;-38
2022/10/24 04:58:46;;;;;;;2.47;1.02;;;21.10;43.70;;;;;;5090100;28;20286;-40
2022/10/24 05:01:17;;;;;;;2.10;1.23;;;21.10;43.80;;;;;;5089603;28;20187;-40
2022/10/24 05:03:49;;;;;;;2.20;1.00;;;21.10;43.80;;;;;;5090067;28;20243;-42
2022/10/24 05:06:20;;;;;;;2.30;1.02;;;21.10;43.90;;;;;;5090087;28;20248;-37
2022/10/24 05:08:51;;;;;;;1.98;1.17;;;21.00;43.90;;;;;;5088995;28;20190;-46
2022/10/24 05:11:22;;;;;;;2.13;0.90;;;21.00;43.90;;;;;;5089850;28;20190;-39
2022/10/24 05:13:52;;;;;;;2.20;1.00;;;21.00;44.00;;;;;;5090170;28;20313;-42
2022/10/24 05:16:23;;;;;;;1.65;0.93;;;21.00;44.00;;;;;;5089489;28;20266;-46
2022/10/24 05:18:55;;;;;;;1.92;1.13;;;20.90;44.00;;;;;;5090222;28;20279;-41
2022/10/24 05:21:26;;;;;;;1.48;1.08;;;20.90;44.10;;;;;;5090162;28;20198;-42
2022/10/24 05:23:57;;;;;;;2.17;1.17;;;20.90;44.10;;;;;;5089817;28;20672;-46
2022/10/24 05:26:28;;;;;;;2.65;1.15;;;20.90;44.10;;;;;;5089856;28;20307;-39
2022/10/24 05:28:58;;;;;;;1.33;1.02;;;20.90;44.10;;;;;;5089949;28;20204;-40
2022/10/24 05:31:29;;;;;;;1.75;1.00;;;20.90;44.10;;;;;;5089562;28;20239;-38
2022/10/24 05:34:01;;;;;;;1.52;1.00;;;20.80;44.10;;;;;;5089814;28;20198;-41
2022/10/24 05:36:32;;;;;;;1.77;0.90;;;20.80;44.10;;;;;;5089958;28;20214;-37
2022/10/24 05:39:03;;;;;;;2.95;1.38;;;20.80;44.10;;;;;;5090205;28;20217;-41
2022/10/24 05:41:34;;;;;;;1.60;1.13;;;20.80;44.20;;;;;;5090078;28;20196;-40
2022/10/24 05:44:04;;;;;;;1.92;1.00;;;20.80;44.20;;;;;;5090038;28;20230;-43
2022/10/24 05:46:35;;;;;;;2.22;1.30;;;20.80;44.30;;;;;;5089175;28;20221;-41
2022/10/24 05:49:08;;;;;;;1.75;1.08;;;20.70;44.30;;;;;;5090247;28;20284;-50
2022/10/24 05:51:39;;;;;;;3.10;1.30;;;20.70;44.30;;;;;;5089968;28;20197;-44
2022/10/24 05:54:09;;;;;;;2.15;1.20;;;20.70;44.30;;;;;;5089463;28;20198;-39
2022/10/24 05:56:40;;;;;;;1.73;1.15;;;20.70;44.40;;;;;;5089145;28;20226;-40
2022/10/24 05:59:11;;;;;;;1.40;0.90;;;20.60;44.30;;;;;;5088992;28;20222;-47
2022/10/24 06:01:42;;;;;;;2.28;1.13;;;20.60;44.30;;;;;;5088362;28;20190;-45
2022/10/24 06:04:14;;;;;;;1.88;1.02;;;20.60;44.30;;;;;;5089487;28;20247;-43
2022/10/24 06:06:46;;;;;;;2.80;1.15;;;20.60;44.30;;;;;;5089567;28;20267;-38
2022/10/24 06:09:17;;;;;;;1.42;1.00;;;20.60;44.30;;;;;;5089667;28;20217;-43
2022/10/24 06:11:48;;;;;;;1.48;1.08;;;20.60;44.40;;;;;;5089624;28;20201;-40
2022/10/24 06:14:19;;;;;;;2.30;1.10;;;20.50;44.40;;;;;;5089300;28;20197;-41
2022/10/24 06:16:49;;;;;;;1.40;0.85;;;20.50;44.40;;;;;;5088476;28;20225;-47
2022/10/24 06:19:22;;;;;;;1.50;1.00;;;20.50;44.40;;;;;;5089683;28;20226;-40
2022/10/24 06:21:53;;;;;;;1.65;1.17;;;20.50;44.50;;;;;;5093339;28;20633;-41
2022/10/24 06:24:24;;;;;;;1.75;1.00;;;20.40;44.50;;;;;;5093428;28;20194;-40
2022/10/24 06:26:55;;;;;;;1.48;1.02;;;20.40;44.50;;;;;;5093352;28;20250;-41
2022/10/24 06:29:25;;;;;;;1.52;0.90;;;20.40;44.50;;;;;;5093535;28;20197;-41
2022/10/24 06:31:56;;;;;;;2.10;1.30;;;20.40;44.60;;;;;;5092590;28;20216;-38
2022/10/24 06:34:29;;;;;;;1.60;1.10;;;20.40;44.60;;;;;;5092123;28;20719;-41
2022/10/24 06:37:00;;;;;;;1.50;0.95;;;20.40;44.50;;;;;;5092796;28;20217;-41
2022/10/24 06:39:30;;;;;;;1.17;0.93;;;20.40;44.60;;;;;;5092983;28;20233;-39
2022/10/24 06:42:02;;;;;;;1.60;0.90;;;20.30;44.50;;;;;;5093193;28;20416;-43
2022/10/24 06:44:32;;;;;;;2.15;1.00;;;20.30;44.80;;;;;;5093081;28;20840;-39
2022/10/24 06:47:03;;;;;;;2.92;1.10;;;20.30;44.50;;;;;;5092630;28;20214;-40
2022/10/24 06:49:36;;;;;;;1.10;1.00;;;20.30;44.60;;;;;;5093435;28;20214;-39
2022/10/24 06:52:07;;;;;;;2.05;0.95;;;20.30;44.60;;;;;;5092909;28;20738;-39
2022/10/24 06:54:38;;;;;;;2.78;1.25;;;20.20;44.60;;;;;;5092815;28;20194;-38
2022/10/24 06:57:09;;;;;;;1.58;1.00;;;20.20;44.70;;;;;;5092780;28;20438;-42
2022/10/24 06:59:39;;;;;;;2.67;1.48;;;20.20;44.70;;;;;;5092542;28;20225;-41
2022/10/24 07:02:11;;;;;;;1.77;0.93;;;20.20;44.80;;;;;;5091704;28;20259;-41
2022/10/24 07:04:43;;;;;;;2.72;1.02;;;20.10;44.80;;;;;;5092390;28;20194;-37
2022/10/24 07:07:17;;;;;;;2.33;1.20;;;20.10;44.80;;;;;;5092318;28;20279;-38
2022/10/24 07:09:52;;;;;;;2.60;1.05;;;20.10;44.80;;;;;;5092123;28;20278;-41
2022/10/24 07:12:23;;;;;;;2.55;1.08;;;20.10;44.80;;;;;;5092442;28;20562;-38
2022/10/24 07:14:54;;;;;;;1.40;1.00;;;20.10;44.80;;;;;;5092394;28;20299;-40
2022/10/24 07:17:25;;;;;;;1.98;1.10;;;20.10;44.80;;;;;;5091972;28;20998;-47
2022/10/24 07:19:58;;;;;;;2.30;1.10;;;20.10;44.90;;;;;;5091979;28;20704;-42
2022/10/24 07:22:29;;;;;;;2.65;1.30;;;20.00;44.90;;;;;;5092213;28;20190;-42
2022/10/24 07:25:00;;;;;;;1.45;0.90;;;20.00;44.90;;;;;;5092483;28;20194;-38
2022/10/24 07:27:31;;;;;;;1.35;1.08;;;20.00;44.90;;;;;;5092114;28;20309;-42
2022/10/24 07:30:02;;;;;;;1.65;1.00;;;20.00;45.00;;;;;;5091743;28;20814;-39
2022/10/24 07:32:32;;;;;;;2.50;1.00;;;19.90;45.00;;;;;;5090586;28;20198;-39
2022/10/24 07:35:05;;;;;;;1.77;1.10;;;19.90;45.00;;;;;;5091702;28;20190;-46
2022/10/24 07:37:36;;;;;;;2.17;1.10;;;19.90;45.00;;;;;;5091808;28;20232;-39
2022/10/24 07:40:08;;;;;;;2.70;1.30;;;19.90;45.00;;;;;;5091848;28;20228;-37
2022/10/24 07:42:38;;;;;;;1.25;0.90;;;19.90;45.00;;;;;;5091802;28;20194;-49
2022/10/24 07:45:10;;;;;;;1.83;1.25;;;19.90;45.10;;;;;;5091852;28;20205;-37
2022/10/24 07:47:41;;;;;;;2.55;1.10;;;19.90;45.00;;;;;;5088869;28;20214;-43
2022/10/24 07:50:14;;;;;;;1.48;0.95;;;19.80;45.10;;;;;;5089801;28;20239;-41
2022/10/24 07:52:45;;;;;;;1.60;1.00;;;19.80;45.10;;;;;;5092731;28;20209;-37
2022/10/24 07:55:15;;;;;;;2.22;0.95;;;19.80;45.20;;;;;;5091128;28;20198;-39
2022/10/24 07:57:46;;;;;;;1.30;0.90;;;19.80;45.20;;;;;;5091838;28;20214;-38
2022/10/24 08:00:18;;;;;;;2.95;1.10;;;19.80;45.30;;;;;;5073941;28;20625;-39
2022/10/24 08:02:48;;;;;;;2.53;1.08;;;19.70;45.20;;;;;;5092733;28;20311;-39
2022/10/24 08:05:21;;;;;;;2.10;1.00;;;19.80;45.40;;;;;;5091433;28;20661;-42
2022/10/24 08:07:52;;;;;;;1.83;1.27;;;19.70;45.40;;;;;;5091966;28;20232;-38
2022/10/24 08:10:22;;;;;;;1.90;0.95;;;19.70;45.40;;;;;;5090974;28;20198;-40
2022/10/24 08:12:53;;;;;;;2.28;1.27;;;19.70;45.40;;;;;;5091636;28;20618;-46
2022/10/24 08:15:26;;;;;;;1.73;1.15;;;19.70;45.40;;;;;;5091401;28;20285;-44
2022/10/24 08:18:00;;;;;;;1.73;1.10;;;19.60;45.40;;;;;;5091818;28;20225;-46
2022/10/24 08:20:33;;;;;;;2.33;1.02;;;19.60;45.40;;;;;;5092333;28;20225;-46
2022/10/24 08:23:04;;;;;;;2.10;1.00;;;19.60;45.40;;;;;;5091422;28;20216;-46
2022/10/24 08:25:35;;;;;;;1.80;0.90;;;19.60;45.40;;;;;;5092174;28;20229;-49
2022/10/24 08:28:05;;;;;;;1.48;0.80;;;19.60;45.50;;;;;;5091987;28;20792;-40
2022/10/24 08:30:36;;;;;;;1.13;0.80;;;19.50;45.50;;;;;;5091106;28;20550;-43
2022/10/24 08:33:07;;;;;;;1.60;0.98;;;19.50;45.50;;;;;;5089986;28;20206;-40
2022/10/24 08:35:40;;;;;;;1.90;0.90;;;19.50;45.50;;;;;;5091866;28;20190;-42
2022/10/24 08:38:11;;;;;;;1.77;1.00;;;19.50;45.60;;;;;;5091320;28;20224;-41
2022/10/24 08:40:41;;;;;;;1.90;0.90;;;19.50;45.60;;;;;;5091359;28;20725;-41
2022/10/24 08:43:13;;;;;;;2.55;1.13;;;19.50;45.60;;;;;;5091128;28;20247;-41
2022/10/24 08:45:54;;;;;;;2.60;1.20;;;19.40;45.50;;;;;;5091039;28;20239;-41
2022/10/24 08:48:28;;;;;;;1.83;1.00;;;19.50;45.60;;;;;;5091789;28;20200;-42
2022/10/24 08:51:10;;;;;;;2.13;0.95;;;19.50;45.50;;;;;;5090840;28;20187;-41
2022/10/24 08:53:42;;;;;;;1.30;0.93;;;19.40;45.50;;;;;;5091874;28;20206;-42
2022/10/24 08:56:15;;;;;;;1.92;0.93;;;19.40;45.50;;;;;;5088985;28;20731;-44
2022/10/24 08:58:47;;;;;;;2.42;1.20;;;19.40;45.60;;;;;;5091421;28;20206;-40
2022/10/24 09:01:28;;;;;;;1.77;1.00;;;19.40;45.60;;;;;;5091135;28;20216;-40
2022/10/24 09:04:04;;;;;;;1.35;0.90;;;19.40;45.60;;;;;;5090742;28;20251;-38
2022/10/24 09:06:38;;;;;;;2.25;1.02;;;19.30;45.60;;;;;;5090899;28;20673;-38
2022/10/24 09:09:19;;;;;;;1.17;0.70;;;19.40;45.70;;;;;;5090890;28;20192;-40
2022/10/24 09:11:54;;;;;;;1.42;1.00;;;19.30;45.60;;;;;;5090973;28;20277;-41
2022/10/24 09:14:28;;;;;;;2.00;1.05;;;19.30;45.70;;;;;;5091773;28;20208;-47
2022/10/24 09:17:02;;;;;;;2.70;1.20;;;19.30;45.70;;;;;;5091265;28;20258;-45
2022/10/24 09:19:34;;;;;;;1.80;1.33;;;19.30;45.70;;;;;;5089343;28;20228;-38
2022/10/24 09:22:07;;;;;;;1.90;1.10;;;19.20;45.60;;;;;;5091075;28;20247;-39
2022/10/24 09:24:44;;;;;;;1.33;1.10;;;19.20;45.60;;;;;;5090211;28;20202;-39
2022/10/24 09:27:19;;;;;;;2.15;1.13;;;19.20;45.60;;;;;;5091046;28;20210;-42
2022/10/24 09:29:50;;;;;;;1.67;1.20;;;19.20;45.70;;;;;;5090951;28;20732;-40
2022/10/24 09:32:25;;;;;;;1.70;1.02;;;19.20;45.70;;;;;;5091490;28;20200;-39
2022/10/24 09:34:56;;;;;;;2.42;1.52;;;19.20;45.70;;;;;;5090061;28;20259;-40
2022/10/24 09:37:41;;;;;;;2.05;1.17;;;19.20;45.80;;;;;;5090618;28;20218;-43
2022/10/24 09:40:18;;;;;;;1.40;1.13;;;19.10;45.80;;;;;;5090593;28;20224;-41
2022/10/24 09:43:01;;;;;;;1.67;1.20;;;19.10;45.80;;;;;;5090993;28;20182;-38
2022/10/24 09:45:38;;;;;;;1.75;1.00;;;19.10;45.80;;;;;;5090736;28;20672;-38
2022/10/24 09:48:21;;;;;;;1.35;1.00;;;19.00;45.80;;;;;;5089641;28;20256;-38
2022/10/24 09:50:54;;;;;;;1.50;0.98;;;19.00;45.90;;;;;;5089695;28;20579;-42
2022/10/24 09:53:30;;;;;;;2.03;1.38;;;19.00;45.80;;;;;;5090974;28;20285;-40
2022/10/24 09:56:02;;;;;;;2.05;1.27;;;19.00;45.80;;;;;;5093859;28;20581;-38
2022/10/24 09:58:34;;;;;;;1.92;1.25;;;19.00;45.90;;;;;;5094504;28;20194;-38
2022/10/24 10:01:07;;;;;;;2.53;1.33;;;19.00;45.80;;;;;;5094865;28;20226;-43
2022/10/24 10:03:38;;;;;;;1.00;0.85;;;19.00;45.80;;;;;;5093919;28;20201;-42
2022/10/24 10:06:19;;;;;;;1.60;1.00;;;19.00;45.80;;;;;;5094728;28;20666;-38
2022/10/24 10:08:55;;;;;;;1.77;1.05;;;18.90;45.80;;;;;;5095183;28;20190;-47
2022/10/24 10:11:29;;;;;;;2.20;1.10;;;18.90;45.80;;;;;;5093658;28;20194;-38
2022/10/24 10:14:01;;;;;;;2.35;1.20;;;18.90;45.80;;;;;;5093829;28;20198;-40
2022/10/24 10:16:34;;;;;;;1.58;1.15;;;18.90;45.80;;;;;;5093820;28;20218;-39
2022/10/24 10:19:08;;;;;;;1.42;1.02;;;18.80;45.80;;;;;;5093509;28;20198;-41
2022/10/24 10:21:59;;;;;;;2.25;1.00;;;18.80;45.90;;;;;;5092751;28;20303;-38
2022/10/24 10:24:41;;;;;;;1.63;1.08;;;18.80;45.90;;;;;;5092852;28;20817;-39
2022/10/24 10:27:31;;;;;;;1.75;1.10;;;18.80;45.90;;;;;;5093298;28;20221;-41
2022/10/24 10:30:28;;;;;;;2.75;1.30;;;18.80;45.90;;;;;;5093119;28;20220;-43
2022/10/24 10:33:16;;;;;;;1.85;1.10;;;18.80;45.80;;;;;;5068547;28;20194;-43
2022/10/24 10:35:54;;;;;;;1.42;1.10;;;18.80;46.40;;;;;;5092057;28;20256;-41
2022/10/24 10:38:47;;;;;;;2.33;1.38;;;18.80;45.80;;;;;;5092837;28;20715;-42
2022/10/24 10:41:28;;;;;;;3.00;1.02;;;18.70;45.80;;;;;;5092730;28;20225;-40
2022/10/24 10:44:17;;;;;;;2.05;1.38;;;18.70;45.80;;;;;;5093128;28;20277;-47
2022/10/24 10:46:56;;;;;;;1.30;1.00;;;18.70;45.90;;;;;;5092836;28;20718;-45
2022/10/24 10:49:32;;;;;;;2.42;1.13;;;18.70;45.90;;;;;;5093258;28;20194;-37
2022/10/24 10:52:07;;;;;;;1.70;1.08;;;18.70;45.90;;;;;;5093086;28;20251;-44
2022/10/24 10:54:53;;;;;;;2.25;1.10;;;18.60;45.80;;;;;;5092975;28;20258;-40
2022/10/24 10:57:31;;;;;;;2.53;1.15;;;18.60;45.90;;;;;;5092902;28;20222;-47
2022/10/24 11:00:09;;;;;;;2.28;1.30;;;18.60;46.50;;;;;;5092554;28;20237;-42
2022/10/24 11:03:04;;;;;;;2.33;1.10;;;18.60;45.90;;;;;;5092817;28;20193;-43
2022/10/24 11:05:54;;;;;;;3.38;1.17;;;18.60;45.90;;;;;;5090979;28;20201;-41
2022/10/24 11:08:43;;;;;;;1.02;0.93;;;18.60;45.90;;;;;;5092411;28;20190;-46
2022/10/24 11:11:17;;;;;;;2.47;1.35;;;18.60;45.90;;;;;;5092619;28;20277;-45
2022/10/24 11:13:54;;;;;;;1.80;1.25;;;18.50;45.80;;;;;;5092472;28;20189;-47
2022/10/24 11:16:29;;;;;;;1.15;0.95;;;18.50;45.80;;;;;;5092842;28;20618;-44
2022/10/24 11:19:03;;;;;;;1.83;1.10;;;18.50;45.90;;;;;;5092466;28;20194;-45
2022/10/24 11:21:38;;;;;;;1.67;0.88;;;18.50;46.00;;;;;;5091680;28;20279;-38
2022/10/24 11:24:14;;;;;;;1.70;1.10;;;18.50;45.80;;;;;;5092226;28;20201;-39
2022/10/24 11:26:48;;;;;;;1.35;1.00;;;18.50;45.80;;;;;;5092435;28;20213;-42
2022/10/24 11:29:28;;;;;;;1.83;0.98;;;18.50;45.80;;;;;;5091934;28;20208;-41
2022/10/24 11:32:02;;;;;;;1.42;1.00;;;18.40;45.80;;;;;;5091942;28;20190;-40
2022/10/24 11:34:37;;;;;;;1.20;1.10;;;18.40;45.80;;;;;;5091412;28;20189;-37
2022/10/24 11:37:14;;;;;;;2.20;1.10;;;18.40;45.80;;;;;;5071496;28;20221;-41
2022/10/24 11:39:51;;;;;;;2.95;1.10;;;18.40;45.80;;;;;;5071220;28;20221;-40
2022/10/24 11:42:27;;;;;;;1.85;1.13;;;18.40;45.80;;;;;;5071164;28;20284;-38
2022/10/24 11:45:06;;;;;;;2.38;1.02;;;18.40;45.80;;;;;;5071675;28;20194;-42
2022/10/24 11:47:56;;;;;;;1.42;1.10;;;18.40;45.80;;;;;;5071636;28;20246;-44
2022/10/24 11:50:35;;;;;;;2.00;0.90;;;18.40;45.80;;;;;;5066619;28;20273;-44
2022/10/24 11:53:14;;;;;;;1.65;1.10;;;18.40;45.80;;;;;;5091889;28;20198;-44
2022/10/24 11:55:48;;;;;;;2.33;1.00;;;18.30;45.70;;;;;;5091646;28;20194;-42
2022/10/24 11:58:22;;;;;;;1.38;0.85;;;18.40;45.80;;;;;;5091759;28;20202;-44
2022/10/24 12:01:19;;;;;;;1.23;0.80;;;18.30;45.70;;;;;;5091571;28;20724;-47
2022/10/24 12:04:17;;;;;;;1.73;1.23;;;18.30;45.70;;;;;;5091700;28;20653;-37
2022/10/24 12:07:24;;;;;;;1.70;1.02;;;18.30;45.70;;;;;;5091136;28;20222;-40
2022/10/24 12:10:22;;;;;;;1.55;0.90;;;18.30;45.70;;;;;;5073619;28;20201;-39
2022/10/24 12:13:11;;;;;;;1.52;1.05;;;18.30;45.80;;;;;;5090998;28;20198;-41
2022/10/24 12:15:50;;;;;;;1.35;0.98;;;18.20;45.70;;;;;;5090938;28;20216;-44
2022/10/24 12:18:32;;;;;;;1.33;0.93;;;18.20;45.80;;;;;;5090334;28;20198;-44
2022/10/24 12:21:06;;;;;;;1.67;1.10;;;18.20;45.80;;;;;;5090356;28;20218;-39
2022/10/24 12:23:37;;;;;;;2.10;1.02;;;18.20;45.80;;;;;;5090717;28;20239;-37
2022/10/24 12:26:10;;;;;;;2.13;0.90;;;18.20;45.80;;;;;;5090736;28;20997;-38
2022/10/24 12:28:42;;;;;;;1.98;1.00;;;18.20;45.70;;;;;;5090827;28;20642;-40
2022/10/24 12:31:23;;;;;;;1.73;1.05;;;18.20;45.70;;;;;;5090980;28;20285;-37
2022/10/24 12:34:26;;;;;;;1.30;0.82;;;18.20;45.70;;;;;;5090984;28;20707;-42
2022/10/24 12:37:13;;;;;;;2.42;1.35;;;18.20;45.70;;;;;;5090310;28;20576;-45
2022/10/24 12:39:45;;;;;;;2.25;1.08;;;18.10;45.70;;;;;;5090911;28;20193;-40
2022/10/24 12:42:17;;;;;;;1.55;1.00;;;18.10;45.70;;;;;;5090617;28;20694;-48
2022/10/24 12:44:49;;;;;;;1.63;0.95;;;18.10;45.70;;;;;;5090692;28;20202;-43
2022/10/24 12:47:41;;;;;;;1.55;1.05;;;18.10;45.80;;;;;;5090723;28;20740;-40
2022/10/24 12:50:46;;;;;;;1.23;0.90;;;18.10;45.80;;;;;;5090673;28;20202;-38
2022/10/24 12:53:34;;;;;;;1.88;0.93;;;18.10;45.80;;;;;;5070454;28;20654;-41
2022/10/24 12:56:17;;;;;;;1.80;1.10;;;18.00;45.70;;;;;;5070392;28;20232;-39
2022/10/24 12:59:03;;;;;;;1.70;1.00;;;18.10;45.80;;;;;;5058846;28;20209;-39
2022/10/24 13:01:36;;;;;;;2.40;0.98;;;18.00;45.70;;;;;;5070174;28;20283;-40
2022/10/24 13:04:45;;;;;;;1.95;0.93;;;18.00;45.70;;;;;;5070384;28;20831;-39
2022/10/24 13:07:49;;;;;;;1.30;0.98;;;18.00;45.70;;;;;;5052401;28;20223;-41
2022/10/24 13:10:56;;;;;;;1.98;0.98;;;18.00;45.70;;;;;;5043301;28;20733;-38
2022/10/24 13:13:54;;;;;;;1.92;1.20;;;17.90;45.80;;;;;;5049839;28;20191;-39
2022/10/24 13:16:35;;;;;;;2.13;1.10;;;17.90;45.80;;;;;;5049250;28;20222;-43
2022/10/24 13:19:13;;;;;;;1.52;0.93;;;17.90;45.80;;;;;;5049824;28;20195;-40
2022/10/24 13:21:51;;;;;;;1.38;0.88;;;17.90;45.90;;;;;;5060643;28;20230;-44
2022/10/24 13:24:29;;;;;;;1.92;0.93;;;17.90;45.90;;;;;;5069766;28;20198;-44
2022/10/24 13:27:34;;;;;;;1.67;0.98;;;17.90;45.90;;;;;;5069558;28;20210;-42